Scholes International At Galveston Airport
KGLS : now visible

Airfield :











YOU CAN JOIN US ON...

 
LOGIN :

Register | Disclaimer

   EN    FR    IT 

 









Legend :    VFR   Marginal VFR   IFR   Intensive IFR   Very Intensive IFR
Visi :
Ceiling :
>= 8 km
>= 3000ft
5 to 8 km
1000 to 3000 ft
1500m to 5 km
500 to 1000 ft
800 to 1500m
200 to 500 ft
< 800m
< 200 ft
Symbols :   Thunderstorms  Fog  Heavy snow  Heavy precipitations  Wind > 20 kt






- Airport Elevation : 6 ft
- IATA code : GLS


KGLS - Scholes International At Galveston

CURRENT METAR :
  • 101309Z 03015KT 10SM BKN013 OVC019 21/19 A3001 RMK AO2 T02110189

EXPIRED METARs :
  • 101252Z 02012KT 10SM FEW009 BKN018 BKN023 21/19 A3001 RMK AO2 PRESRR SLP160 T02110189
  • 101240Z 03015KT 10SM SCT011 BKN016 OVC023 21/19 A2999 RMK AO2 T02110189
  • 101227Z 02015KT 10SM BKN009 BKN014 22/19 A2999 RMK AO2 CIG 008V013 T02170194
  • 101152Z 36012KT 10SM OVC012 22/19 A2998 RMK AO2 SLP151 70001 T02220194 10233 20222 53038
  • 101114Z 01009KT 10SM BKN014 BKN044 23/20 A2995 RMK AO2 T02280200
  • 101052Z 02008KT 10SM SCT044 23/20 A2993 RMK AO2 SLP136 T02280200

TAF KGLS
Valid from the 10 at 13:00 until the 11 at 12:00 UTC


101233Z 1013/1112 02015KT P6SM BKN009 BKN014
FM101400 04016G24KT P6SM OVC021
FM101600 05018G28KT P6SM BKN035
FM111000 10014KT P6SM BKN040



MET'MAP, your aeronautical weather chart ! - Copyright ORBIFLY December 2007 - Disclaimer

ORBIFLY MET'MAP TEAM :

Programming & Development : Alexandra Zaïnal
Concept & original design : Baudouin d'Aumeries
Assistance for programming : Marc-Olivier Méhu
Technical & hardware support : Manuel Goepfert

Contact : metmap@orbifly.com




SOURCES & CREDITS :

   NOAA       Earth
Advisory